sensor_id;sensor_type;location;lat;lon;timestamp;P1;durP1;ratioP1;P2;durP2;ratioP2
77038;SDS011;65970;50.476;4.840;2023-04-03T00:04:39;6.35;;;3.42;;
77038;SDS011;65970;50.476;4.840;2023-04-03T00:09:40;3.67;;;2.95;;
77038;SDS011;65970;50.476;4.840;2023-04-03T00:14:41;4.88;;;3.60;;
77038;SDS011;65970;50.476;4.840;2023-04-03T00:19:41;7.97;;;3.65;;
77038;SDS011;65970;50.476;4.840;2023-04-03T00:24:42;5.28;;;3.55;;
77038;SDS011;65970;50.476;4.840;2023-04-03T00:29:42;3.45;;;3.00;;
77038;SDS011;65970;50.476;4.840;2023-04-03T00:34:43;4.82;;;3.40;;
77038;SDS011;65970;50.476;4.840;2023-04-03T00:39:44;4.65;;;3.58;;
77038;SDS011;65970;50.476;4.840;2023-04-03T00:49:45;5.78;;;3.40;;
77038;SDS011;65970;50.476;4.840;2023-04-03T00:54:45;3.70;;;3.03;;
77038;SDS011;65970;50.476;4.840;2023-04-03T00:59:49;2.63;;;2.08;;
77038;SDS011;65970;50.476;4.840;2023-04-03T01:04:55;3.55;;;3.25;;
77038;SDS011;65970;50.476;4.840;2023-04-03T01:09:56;3.85;;;2.78;;
77038;SDS011;65970;50.476;4.840;2023-04-03T01:15:00;5.38;;;3.53;;
77038;SDS011;65970;50.476;4.840;2023-04-03T01:25:26;4.18;;;3.80;;
77038;SDS011;65970;50.476;4.840;2023-04-03T01:30:31;6.68;;;3.72;;
77038;SDS011;65970;50.476;4.840;2023-04-03T01:35:59;4.53;;;3.42;;
77038;SDS011;65970;50.476;4.840;2023-04-03T01:40:59;3.15;;;2.60;;
77038;SDS011;65970;50.476;4.840;2023-04-03T01:46:00;4.05;;;3.53;;
77038;SDS011;65970;50.476;4.840;2023-04-03T01:51:00;5.22;;;3.42;;
77038;SDS011;65970;50.476;4.840;2023-04-03T01:56:01;6.30;;;3.33;;
77038;SDS011;65970;50.476;4.840;2023-04-03T02:01:02;3.42;;;3.13;;
77038;SDS011;65970;50.476;4.840;2023-04-03T02:06:02;3.42;;;2.80;;
77038;SDS011;65970;50.476;4.840;2023-04-03T02:11:03;5.22;;;3.38;;
77038;SDS011;65970;50.476;4.840;2023-04-03T02:16:10;4.97;;;3.42;;
77038;SDS011;65970;50.476;4.840;2023-04-03T02:21:11;5.95;;;3.55;;
77038;SDS011;65970;50.476;4.840;2023-04-03T02:26:12;4.10;;;3.65;;
77038;SDS011;65970;50.476;4.840;2023-04-03T02:31:16;4.50;;;3.07;;
77038;SDS011;65970;50.476;4.840;2023-04-03T02:36:17;2.92;;;2.47;;
77038;SDS011;65970;50.476;4.840;2023-04-03T02:41:17;3.13;;;2.80;;
77038;SDS011;65970;50.476;4.840;2023-04-03T02:46:18;2.88;;;2.50;;
77038;SDS011;65970;50.476;4.840;2023-04-03T02:51:18;5.55;;;2.53;;
77038;SDS011;65970;50.476;4.840;2023-04-03T02:56:19;3.30;;;2.60;;
77038;SDS011;65970;50.476;4.840;2023-04-03T03:01:20;4.50;;;3.00;;
77038;SDS011;65970;50.476;4.840;2023-04-03T03:06:20;3.17;;;2.97;;
77038;SDS011;65970;50.476;4.840;2023-04-03T03:11:21;2.60;;;2.40;;
77038;SDS011;65970;50.476;4.840;2023-04-03T03:16:21;6.70;;;3.35;;
77038;SDS011;65970;50.476;4.840;2023-04-03T03:21:22;5.07;;;3.08;;
77038;SDS011;65970;50.476;4.840;2023-04-03T03:26:23;3.88;;;3.47;;
77038;SDS011;65970;50.476;4.840;2023-04-03T03:31:23;4.20;;;3.10;;
77038;SDS011;65970;50.476;4.840;2023-04-03T03:36:24;2.70;;;2.45;;
77038;SDS011;65970;50.476;4.840;2023-04-03T03:41:24;3.65;;;2.50;;
77038;SDS011;65970;50.476;4.840;2023-04-03T03:46:25;3.00;;;2.42;;
77038;SDS011;65970;50.476;4.840;2023-04-03T03:51:26;3.00;;;2.42;;
77038;SDS011;65970;50.476;4.840;2023-04-03T03:56:26;5.05;;;2.83;;
77038;SDS011;65970;50.476;4.840;2023-04-03T04:01:27;4.85;;;2.88;;
77038;SDS011;65970;50.476;4.840;2023-04-03T04:06:27;4.05;;;2.15;;
77038;SDS011;65970;50.476;4.840;2023-04-03T04:11:28;3.60;;;3.10;;
77038;SDS011;65970;50.476;4.840;2023-04-03T04:16:28;5.57;;;3.45;;
77038;SDS011;65970;50.476;4.840;2023-04-03T04:21:29;3.28;;;2.75;;
77038;SDS011;65970;50.476;4.840;2023-04-03T04:26:29;3.47;;;2.97;;
77038;SDS011;65970;50.476;4.840;2023-04-03T04:31:30;3.67;;;2.90;;
77038;SDS011;65970;50.476;4.840;2023-04-03T04:36:30;2.97;;;2.72;;
77038;SDS011;65970;50.476;4.840;2023-04-03T04:41:31;4.45;;;3.10;;
77038;SDS011;65970;50.476;4.840;2023-04-03T04:46:32;3.15;;;2.47;;
77038;SDS011;65970;50.476;4.840;2023-04-03T04:56:43;3.88;;;2.75;;
77038;SDS011;65970;50.476;4.840;2023-04-03T05:01:44;5.05;;;2.70;;
77038;SDS011;65970;50.476;4.840;2023-04-03T05:06:44;4.55;;;3.13;;
77038;SDS011;65970;50.476;4.840;2023-04-03T05:16:55;3.72;;;2.75;;
77038;SDS011;65970;50.476;4.840;2023-04-03T05:42:37;3.58;;;3.08;;
77038;SDS011;65970;50.476;4.840;2023-04-03T06:08:19;5.97;;;3.20;;
77038;SDS011;65970;50.476;4.840;2023-04-03T07:52:16;5.18;;;3.90;;
77038;SDS011;65970;50.476;4.840;2023-04-03T07:57:17;5.50;;;3.60;;
77038;SDS011;65970;50.476;4.840;2023-04-03T08:02:18;5.07;;;3.85;;
77038;SDS011;65970;50.476;4.840;2023-04-03T08:07:18;3.63;;;2.80;;
77038;SDS011;65970;50.476;4.840;2023-04-03T08:12:19;3.42;;;2.72;;
77038;SDS011;65970;50.476;4.840;2023-04-03T08:17:19;4.65;;;2.78;;
77038;SDS011;65970;50.476;4.840;2023-04-03T08:22:20;4.10;;;2.45;;
77038;SDS011;65970;50.476;4.840;2023-04-03T08:27:20;2.42;;;2.00;;
77038;SDS011;65970;50.476;4.840;2023-04-03T08:32:21;8.57;;;2.25;;
77038;SDS011;65970;50.476;4.840;2023-04-03T08:37:21;3.03;;;2.50;;
77038;SDS011;65970;50.476;4.840;2023-04-03T08:52:44;3.75;;;1.60;;
77038;SDS011;65970;50.476;4.840;2023-04-03T08:57:51;3.72;;;2.58;;
77038;SDS011;65970;50.476;4.840;2023-04-03T09:03:04;4.95;;;2.40;;
77038;SDS011;65970;50.476;4.840;2023-04-03T09:08:18;4.13;;;1.98;;
77038;SDS011;65970;50.476;4.840;2023-04-03T09:13:27;4.38;;;2.28;;
77038;SDS011;65970;50.476;4.840;2023-04-03T09:18:34;3.10;;;2.83;;
77038;SDS011;65970;50.476;4.840;2023-04-03T09:23:50;3.80;;;2.08;;
77038;SDS011;65970;50.476;4.840;2023-04-03T09:28:56;5.55;;;1.98;;
77038;SDS011;65970;50.476;4.840;2023-04-03T09:34:02;4.20;;;2.13;;
77038;SDS011;65970;50.476;4.840;2023-04-03T09:39:11;2.30;;;1.83;;
77038;SDS011;65970;50.476;4.840;2023-04-03T09:44:21;4.47;;;1.50;;
77038;SDS011;65970;50.476;4.840;2023-04-03T09:49:23;3.72;;;1.65;;
77038;SDS011;65970;50.476;4.840;2023-04-03T09:54:31;1.73;;;1.63;;
77038;SDS011;65970;50.476;4.840;2023-04-03T09:59:38;1.50;;;1.02;;
77038;SDS011;65970;50.476;4.840;2023-04-03T10:04:45;2.50;;;1.08;;
77038;SDS011;65970;50.476;4.840;2023-04-03T10:09:53;1.35;;;1.25;;
77038;SDS011;65970;50.476;4.840;2023-04-03T10:14:56;1.60;;;1.27;;
77038;SDS011;65970;50.476;4.840;2023-04-03T10:20:05;3.50;;;1.20;;
77038;SDS011;65970;50.476;4.840;2023-04-03T10:25:34;3.17;;;2.38;;
77038;SDS011;65970;50.476;4.840;2023-04-03T10:41:45;1.58;;;1.42;;
77038;SDS011;65970;50.476;4.840;2023-04-03T10:52:05;2.38;;;1.77;;
77038;SDS011;65970;50.476;4.840;2023-04-03T10:57:36;4.60;;;1.42;;
77038;SDS011;65970;50.476;4.840;2023-04-03T11:02:40;3.92;;;1.98;;
77038;SDS011;65970;50.476;4.840;2023-04-03T11:08:05;2.55;;;1.70;;
77038;SDS011;65970;50.476;4.840;2023-04-03T11:18:38;2.67;;;1.65;;
77038;SDS011;65970;50.476;4.840;2023-04-03T11:23:46;1.52;;;1.38;;
77038;SDS011;65970;50.476;4.840;2023-04-03T11:28:51;1.55;;;1.45;;
77038;SDS011;65970;50.476;4.840;2023-04-03T11:39:07;3.17;;;1.20;;
77038;SDS011;65970;50.476;4.840;2023-04-03T11:44:32;6.07;;;1.83;;
77038;SDS011;65970;50.476;4.840;2023-04-03T11:49:51;1.35;;;0.95;;
77038;SDS011;65970;50.476;4.840;2023-04-03T11:54:53;1.35;;;1.20;;
77038;SDS011;65970;50.476;4.840;2023-04-03T11:59:53;4.72;;;1.50;;
77038;SDS011;65970;50.476;4.840;2023-04-03T12:10:29;3.25;;;1.45;;
77038;SDS011;65970;50.476;4.840;2023-04-03T12:15:50;2.30;;;1.23;;
77038;SDS011;65970;50.476;4.840;2023-04-03T12:20:53;4.33;;;0.80;;
77038;SDS011;65970;50.476;4.840;2023-04-03T12:26:00;2.10;;;0.93;;
77038;SDS011;65970;50.476;4.840;2023-04-03T12:31:03;1.10;;;0.77;;
77038;SDS011;65970;50.476;4.840;2023-04-03T12:36:09;1.58;;;1.42;;
77038;SDS011;65970;50.476;4.840;2023-04-03T12:46:38;2.13;;;1.40;;
77038;SDS011;65970;50.476;4.840;2023-04-03T12:51:44;1.95;;;1.00;;
77038;SDS011;65970;50.476;4.840;2023-04-03T12:56:47;2.55;;;1.10;;
77038;SDS011;65970;50.476;4.840;2023-04-03T13:02:00;1.15;;;1.00;;
77038;SDS011;65970;50.476;4.840;2023-04-03T13:07:02;2.10;;;1.30;;
77038;SDS011;65970;50.476;4.840;2023-04-03T13:12:03;3.15;;;1.38;;
77038;SDS011;65970;50.476;4.840;2023-04-03T13:22:19;1.42;;;0.95;;
77038;SDS011;65970;50.476;4.840;2023-04-03T13:27:24;2.95;;;1.58;;
77038;SDS011;65970;50.476;4.840;2023-04-03T13:32:25;1.90;;;0.98;;
77038;SDS011;65970;50.476;4.840;2023-04-03T13:37:29;1.92;;;1.67;;
77038;SDS011;65970;50.476;4.840;2023-04-03T13:42:32;1.98;;;1.20;;
77038;SDS011;65970;50.476;4.840;2023-04-03T13:47:38;5.00;;;1.20;;
77038;SDS011;65970;50.476;4.840;2023-04-03T13:52:52;4.75;;;1.58;;
77038;SDS011;65970;50.476;4.840;2023-04-03T13:58:02;2.50;;;1.17;;
77038;SDS011;65970;50.476;4.840;2023-04-03T14:03:25;2.88;;;1.48;;
77038;SDS011;65970;50.476;4.840;2023-04-03T14:08:32;1.30;;;0.80;;
